createdAt,value
2023-06-17T15:11:50.885Z,49.70
2023-06-17T15:32:34.124Z,54.70
2023-06-17T15:35:01.325Z,55.50
2023-06-17T15:37:31.242Z,55.20
2023-06-17T15:39:58.458Z,55.60
2023-06-17T15:42:25.593Z,55.70
2023-06-17T15:44:52.576Z,54.40
2023-06-17T15:47:19.565Z,57.10
2023-06-17T15:49:46.619Z,56.80
2023-06-17T15:52:13.989Z,55.80
2023-06-17T15:54:41.420Z,55.00
2023-06-17T15:57:10.005Z,54.10
2023-06-17T15:59:37.238Z,54.20
2023-06-17T16:02:05.019Z,54.40
2023-06-17T16:04:35.839Z,55.30
2023-06-17T16:07:07.303Z,53.80
2023-06-17T16:09:36.267Z,54.90
2023-06-17T16:12:04.319Z,53.50
2023-06-17T16:14:33.614Z,55.00
2023-06-17T16:17:01.345Z,54.10
2023-06-17T16:19:28.411Z,54.70
2023-06-17T16:21:55.711Z,55.70
2023-06-17T16:24:23.181Z,54.80
2023-06-17T16:26:50.182Z,55.50
2023-06-17T16:29:17.510Z,55.10
2023-06-17T16:31:46.194Z,54.50
2023-06-17T16:34:13.594Z,54.00
2023-06-17T16:36:40.982Z,53.70
2023-06-17T16:39:10.122Z,53.80
2023-06-17T16:41:37.884Z,54.40
2023-06-17T16:44:05.067Z,54.50
2023-06-17T16:46:32.854Z,54.80
2023-06-17T16:48:59.880Z,54.50
2023-06-17T16:51:26.941Z,54.80
2023-06-17T16:53:53.906Z,55.00
2023-06-17T16:56:20.888Z,55.50
2023-06-17T16:58:48.102Z,55.20
2023-06-17T17:01:15.087Z,54.50
2023-06-17T17:03:42.776Z,54.90
2023-06-17T17:06:09.997Z,54.90
2023-06-17T17:08:36.984Z,54.90
2023-06-17T17:11:04.204Z,56.40
2023-06-17T17:13:43.536Z,56.60
2023-06-17T17:16:14.591Z,55.80
2023-06-17T17:18:41.536Z,55.80
2023-06-17T17:21:08.974Z,56.90
2023-06-17T17:23:35.999Z,56.00
2023-06-17T17:26:02.981Z,55.70
2023-06-17T17:28:30.147Z,56.20
2023-06-17T17:30:57.108Z,56.50
2023-06-17T17:33:25.045Z,55.80
2023-06-17T17:35:52.939Z,56.50
2023-06-17T17:38:19.885Z,56.60
2023-06-17T17:40:46.846Z,57.50
2023-06-17T17:43:13.876Z,58.20
2023-06-17T17:45:41.282Z,58.90
2023-06-17T17:48:08.397Z,57.20
2023-06-17T17:50:35.706Z,57.60
2023-06-17T17:53:03.143Z,58.50
2023-06-17T17:55:30.337Z,58.00
2023-06-17T17:57:58.104Z,58.30
2023-06-17T18:00:25.164Z,58.90
2023-06-17T18:02:52.256Z,58.80
2023-06-17T18:05:19.343Z,58.90
2023-06-17T18:07:48.239Z,58.70
2023-06-17T18:10:16.830Z,58.50
2023-06-17T18:12:43.880Z,59.80
2023-06-17T18:15:11.624Z,59.50
2023-06-17T18:17:38.879Z,58.90
2023-06-17T18:20:07.223Z,58.50
2023-06-17T18:22:34.191Z,58.10
2023-06-17T18:25:01.578Z,58.30
2023-06-17T18:27:35.792Z,58.10
2023-06-17T18:30:04.683Z,59.10
2023-06-17T18:32:32.112Z,60.00
2023-06-17T18:34:59.178Z,62.10
2023-06-17T18:37:26.453Z,62.50
2023-06-17T18:39:53.504Z,62.90
2023-06-17T18:42:20.582Z,64.40
2023-06-17T18:44:48.269Z,65.10
2023-06-17T18:47:15.629Z,66.40
2023-06-17T18:49:43.691Z,68.50
2023-06-17T18:52:10.686Z,70.90
2023-06-17T18:54:37.849Z,72.30
2023-06-17T18:57:05.355Z,75.00
2023-06-17T18:59:32.375Z,81.00
2023-06-17T19:01:59.356Z,81.80
2023-06-17T19:04:26.387Z,82.20
2023-06-17T19:06:53.363Z,85.20
2023-06-17T19:09:20.380Z,86.70
2023-06-17T19:11:47.341Z,87.30
2023-06-17T19:14:14.370Z,87.70
2023-06-17T19:16:42.060Z,88.10
2023-06-17T19:19:09.144Z,88.40
2023-06-17T19:21:36.372Z,87.90
2023-06-17T19:24:03.417Z,88.60
2023-06-17T19:26:30.533Z,89.50
2023-06-17T19:28:57.476Z,89.30
2023-06-17T19:31:26.011Z,89.10
2023-06-17T19:33:56.428Z,89.60
2023-06-17T19:36:23.386Z,89.40
2023-06-17T19:38:50.473Z,90.20
2023-06-17T19:41:17.412Z,90.00
2023-06-17T19:43:47.990Z,90.20
2023-06-17T19:46:17.712Z,90.60
2023-06-17T19:48:45.207Z,90.30
2023-06-17T19:51:12.624Z,90.70
2023-06-17T19:53:39.515Z,90.50
2023-06-17T19:56:07.851Z,90.80
2023-06-17T19:58:34.837Z,90.60
2023-06-17T20:01:03.438Z,91.50
2023-06-17T20:03:30.571Z,92.00
2023-06-17T20:05:57.912Z,91.70
2023-06-17T20:08:25.464Z,91.50
2023-06-17T20:10:52.438Z,92.10
2023-06-17T20:13:19.396Z,91.90
2023-06-17T20:15:47.869Z,92.00
2023-06-17T20:18:14.920Z,92.20
2023-06-17T20:20:41.916Z,92.80
2023-06-17T20:23:09.521Z,92.70
2023-06-17T20:25:36.572Z,92.70
2023-06-17T20:28:03.620Z,92.70
2023-06-17T20:30:30.675Z,92.60
2023-06-17T20:32:57.630Z,92.90
2023-06-17T20:35:24.703Z,91.90
2023-06-17T20:37:52.367Z,91.80
2023-06-17T20:40:19.593Z,91.70
2023-06-17T20:42:46.800Z,92.50
2023-06-17T20:45:13.837Z,92.20
2023-06-17T20:47:40.921Z,91.80
2023-06-17T20:50:09.497Z,92.20
2023-06-17T20:52:36.439Z,92.30
2023-06-17T20:55:03.424Z,92.60
2023-06-17T20:57:31.141Z,92.20
2023-06-17T20:59:58.492Z,91.80
2023-06-17T21:02:25.807Z,91.60
2023-06-17T21:04:53.032Z,91.70
2023-06-17T21:07:20.210Z,91.60
2023-06-17T21:09:47.726Z,91.20
2023-06-17T21:12:14.765Z,91.00
2023-06-17T21:14:41.719Z,91.20
2023-06-17T21:17:08.868Z,90.80
2023-06-17T21:19:36.113Z,89.30
2023-06-17T21:22:03.177Z,88.90
2023-06-17T21:24:30.586Z,87.80
2023-06-17T21:26:57.592Z,90.30
2023-06-17T21:29:24.649Z,90.10
2023-06-17T21:31:51.715Z,90.00
2023-06-17T21:34:18.782Z,90.10
2023-06-17T21:36:45.761Z,90.70
2023-06-17T21:39:12.727Z,90.50
2023-06-17T21:41:39.711Z,90.60
2023-06-17T21:44:06.760Z,90.80
2023-06-17T21:46:34.382Z,91.10
2023-06-17T21:49:01.667Z,91.50
2023-06-17T21:51:28.866Z,91.60
2023-06-17T21:53:56.243Z,91.10
2023-06-17T21:56:23.483Z,92.00
2023-06-17T21:58:50.484Z,92.10
2023-06-17T22:01:18.380Z,92.10
2023-06-17T22:03:45.722Z,92.30
2023-06-17T22:06:12.898Z,92.50
2023-06-17T22:08:43.774Z,92.20
2023-06-17T22:11:12.682Z,92.90
2023-06-17T22:13:39.984Z,92.80
2023-06-17T22:16:07.111Z,93.20
2023-06-17T22:18:34.147Z,93.00
2023-06-17T22:21:01.330Z,93.00
2023-06-17T22:23:28.508Z,92.70
2023-06-17T22:25:56.886Z,92.90
2023-06-17T22:28:23.872Z,93.30
2023-06-17T22:30:51.098Z,93.40
2023-06-17T22:33:18.106Z,93.90
2023-06-17T22:35:45.167Z,93.90
2023-06-17T22:38:14.029Z,93.90
2023-06-17T22:40:41.034Z,93.80
2023-06-17T22:43:08.333Z,93.50
2023-06-17T22:45:35.389Z,93.80
2023-06-17T22:48:03.618Z,93.90
2023-06-17T22:50:31.691Z,93.70
2023-06-17T22:52:59.116Z,93.70
2023-06-17T22:55:26.299Z,94.10
2023-06-17T22:57:53.344Z,93.90
2023-06-17T23:00:20.675Z,94.00
2023-06-17T23:02:47.919Z,94.10
2023-06-17T23:05:15.037Z,94.00
2023-06-17T23:07:42.347Z,94.30
2023-06-17T23:10:09.542Z,94.40
2023-06-17T23:12:36.500Z,94.70
2023-06-17T23:15:03.942Z,94.70
2023-06-17T23:17:31.121Z,94.40
2023-06-17T23:20:00.291Z,94.30
2023-06-17T23:22:31.428Z,94.30
2023-06-17T23:25:02.445Z,94.40
2023-06-17T23:27:32.012Z,94.50
2023-06-17T23:30:00.546Z,94.40
2023-06-17T23:32:27.911Z,94.50
2023-06-17T23:34:54.908Z,94.70
2023-06-17T23:37:21.948Z,94.70
2023-06-17T23:39:49.257Z,94.80
2023-06-17T23:42:16.482Z,94.70
2023-06-17T23:44:43.634Z,94.70
2023-06-17T23:47:15.403Z,94.00
2023-06-17T23:49:42.421Z,94.30
2023-06-17T23:52:11.052Z,94.40
2023-06-17T23:54:38.620Z,94.50
2023-06-17T23:57:05.844Z,94.30
2023-06-17T23:59:33.489Z,94.10
